Airfield :
LOGIN :

Register | Disclaimer

   EN    FR    IT 

 










Legend :    VFR   Marginal VFR   IFR   Intensive IFR   Very Intensive IFR
Visi :
Ceiling :
>= 8 km
>= 3000ft
5 to 8 km
1000 to 3000 ft
1500m to 5 km
500 to 1000 ft
800 to 1500m
200 to 500 ft
< 800m
< 200 ft
Symbols :   Thunderstorms  Fog  Heavy snow  Heavy precipitations  Wind > 20 kt
SIGMETs :     Misc.  Thunderstorms  Icing  Turbulence  Mountain Waves  Volcanic Ashes







- Airport Elevation : 364 ft
- Download approach charts


LFAQ - Albert Bray

CURRENT METAR :
  • 210900Z AUTO 01010KT 340V040 9000 NSC 17/11 Q1017 TEMPO 4000 SHRA BKN030TCU

EXPIRED METARs :
  • 210830Z AUTO 35010KT 320V020 8000 NSC 16/10 Q1017 TEMPO 4000 SHRA BKN030TCU
  • 210800Z AUTO 29006KT 260V330 5000 BR NSC 14/13 Q1016 NOSIG
  • 210730Z AUTO 28006KT 2000 BR BKN002 12/12 Q1016 BECMG 9999 NSW SCT030
  • 210700Z AUTO 29008KT 1400 0550 R27/1700D BCFG VV/// 11/11 Q1016 BECMG 9999 NSW SCT030
  • 210630Z AUTO 30006KT 0200 R27/0300N FG VV/// 10/10 Q1016 BECMG 9999 NSW SCT030
  • 210600Z AUTO 30008KT 0200 R27/0300N FG VV/// 10/09 Q1016 BECMG 3000 BR BKN004

TAF TAF LFAQ
Valid from the 21 at 09:00 until the 21 at 18:00 UTC


210800Z 2109/2118 30008KT 8000 SCT030
PROB30
TEMPO 2110/2117 4000 SHRA BKN030TCU
No reported NOTAMs for that airfield.



MET'MAP, your aeronautical weather chart ! - Copyright ORBIFLY December 2007 - Disclaimer

ORBIFLY MET'MAP TEAM :

Programming & Development : Alexandra Zaïnal
Concept & Development : Baudouin d'Aumeries
Co-Development & Prog : Marc-Olivier Méhu
Technical & hardware support : Manuel Goepfert

Contact : metmap@orbifly.com




SOURCES & CREDITS :

   NOAA